sensor_id;sensor_type;location;lat;lon;timestamp;pressure;altitude;pressure_sealevel;temperature;humidity
86328;BME280;76984;52.332;10.562;2024-03-17T00:00:53;101558.53;;;3.27;76.50
86328;BME280;76984;52.332;10.562;2024-03-17T00:01:54;101511.81;;;2.93;76.17
86328;BME280;76984;52.332;10.562;2024-03-17T00:02:55;101527.72;;;2.96;76.42
86328;BME280;76984;52.332;10.562;2024-03-17T00:03:55;101544.38;;;3.06;76.64
86328;BME280;76984;52.332;10.562;2024-03-17T00:04:55;101563.16;;;3.15;77.16
86328;BME280;76984;52.332;10.562;2024-03-17T00:05:59;101565.06;;;3.14;77.54
86328;BME280;76984;52.332;10.562;2024-03-17T00:07:00;101554.25;;;3.07;77.75
86328;BME280;76984;52.332;10.562;2024-03-17T00:08:02;101557.94;;;3.13;77.90
86328;BME280;76984;52.332;10.562;2024-03-17T00:09:04;101564.47;;;3.12;78.32
86328;BME280;76984;52.332;10.562;2024-03-17T00:10:06;101561.84;;;3.17;78.15
86328;BME280;76984;52.332;10.562;2024-03-17T00:11:07;101565.16;;;3.19;78.30
86328;BME280;76984;52.332;10.562;2024-03-17T00:12:08;101564.34;;;3.19;78.35
86328;BME280;76984;52.332;10.562;2024-03-17T00:13:08;101524.75;;;2.98;77.93
86328;BME280;76984;52.332;10.562;2024-03-17T00:14:08;101551.41;;;3.14;78.53
86328;BME280;76984;52.332;10.562;2024-03-17T00:15:09;101561.97;;;3.22;77.86
86328;BME280;76984;52.332;10.562;2024-03-17T00:16:10;101542.72;;;3.05;78.20
86328;BME280;76984;52.332;10.562;2024-03-17T00:17:11;101531.53;;;2.95;78.43
86328;BME280;76984;52.332;10.562;2024-03-17T00:18:11;101568.97;;;3.18;78.13
86328;BME280;76984;52.332;10.562;2024-03-17T00:19:12;101563.50;;;3.18;78.18
86328;BME280;76984;52.332;10.562;2024-03-17T00:20:12;101565.66;;;3.16;78.10
86328;BME280;76984;52.332;10.562;2024-03-17T00:21:19;101561.38;;;3.08;78.10
86328;BME280;76984;52.332;10.562;2024-03-17T00:22:20;101571.38;;;3.15;77.98
86328;BME280;76984;52.332;10.562;2024-03-17T00:23:20;101566.84;;;3.08;78.01
86328;BME280;76984;52.332;10.562;2024-03-17T00:24:20;101578.97;;;3.13;78.88
86328;BME280;76984;52.332;10.562;2024-03-17T00:25:20;101571.72;;;3.18;78.36
86328;BME280;76984;52.332;10.562;2024-03-17T00:26:22;101574.09;;;3.15;78.83
86328;BME280;76984;52.332;10.562;2024-03-17T00:27:22;101532.84;;;2.93;78.53
86328;BME280;76984;52.332;10.562;2024-03-17T00:28:22;101548.53;;;2.97;78.28
86328;BME280;76984;52.332;10.562;2024-03-17T00:29:24;101560.19;;;3.04;78.53
86328;BME280;76984;52.332;10.562;2024-03-17T00:30:25;101563.28;;;3.08;77.99
86328;BME280;76984;52.332;10.562;2024-03-17T00:31:25;101567.91;;;3.07;78.25
86328;BME280;76984;52.332;10.562;2024-03-17T00:32:25;101558.53;;;3.03;77.85
86328;BME280;76984;52.332;10.562;2024-03-17T00:33:26;101503.81;;;2.68;77.50
86328;BME280;76984;52.332;10.562;2024-03-17T00:34:26;101545.91;;;2.91;77.30
86328;BME280;76984;52.332;10.562;2024-03-17T00:35:26;101529.72;;;2.77;77.50
86328;BME280;76984;52.332;10.562;2024-03-17T00:36:27;101545.66;;;2.80;77.02
86328;BME280;76984;52.332;10.562;2024-03-17T00:37:27;101539.34;;;2.68;76.87
86328;BME280;76984;52.332;10.562;2024-03-17T00:38:28;101551.25;;;2.74;77.05
86328;BME280;76984;52.332;10.562;2024-03-17T00:39:29;101550.75;;;2.77;77.33
86328;BME280;76984;52.332;10.562;2024-03-17T00:40:30;101540.41;;;2.67;77.14
86328;BME280;76984;52.332;10.562;2024-03-17T00:41:30;101558.38;;;2.75;76.91
86328;BME280;76984;52.332;10.562;2024-03-17T00:42:30;101526.34;;;2.52;76.72
86328;BME280;76984;52.332;10.562;2024-03-17T00:43:30;101563.44;;;2.71;77.17
86328;BME280;76984;52.332;10.562;2024-03-17T00:44:31;101545.63;;;2.57;77.03
86328;BME280;76984;52.332;10.562;2024-03-17T00:45:31;101529.88;;;2.41;77.81
86328;BME280;76984;52.332;10.562;2024-03-17T00:46:32;101562.13;;;2.62;77.99
86328;BME280;76984;52.332;10.562;2024-03-17T00:47:33;101561.53;;;2.60;77.66
86328;BME280;76984;52.332;10.562;2024-03-17T00:48:33;101535.13;;;2.42;77.91
86328;BME280;76984;52.332;10.562;2024-03-17T00:49:33;101563.31;;;2.55;77.89
86328;BME280;76984;52.332;10.562;2024-03-17T00:50:33;101539.63;;;2.37;77.95
86328;BME280;76984;52.332;10.562;2024-03-17T00:51:34;101563.88;;;2.45;78.99
86328;BME280;76984;52.332;10.562;2024-03-17T00:52:34;101552.06;;;2.33;78.44
86328;BME280;76984;52.332;10.562;2024-03-17T00:53:35;101564.31;;;2.42;79.00
86328;BME280;76984;52.332;10.562;2024-03-17T00:54:35;101529.00;;;2.17;78.66
86328;BME280;76984;52.332;10.562;2024-03-17T00:55:35;101526.09;;;2.12;78.35
86328;BME280;76984;52.332;10.562;2024-03-17T00:56:36;101571.19;;;2.33;78.78
86328;BME280;76984;52.332;10.562;2024-03-17T00:57:36;101572.47;;;2.30;78.87
86328;BME280;76984;52.332;10.562;2024-03-17T00:58:37;101553.69;;;2.22;78.47
86328;BME280;76984;52.332;10.562;2024-03-17T00:59:38;101550.91;;;2.10;78.43
86328;BME280;76984;52.332;10.562;2024-03-17T01:00:38;101542.81;;;2.04;78.64
86328;BME280;76984;52.332;10.562;2024-03-17T01:01:39;101551.28;;;2.14;80.30
86328;BME280;76984;52.332;10.562;2024-03-17T01:02:39;101548.78;;;2.12;79.53
86328;BME280;76984;52.332;10.562;2024-03-17T01:03:40;101572.38;;;2.25;78.84
86328;BME280;76984;52.332;10.562;2024-03-17T01:04:40;101578.03;;;2.23;78.88
86328;BME280;76984;52.332;10.562;2024-03-17T01:05:40;101539.13;;;1.98;79.00
86328;BME280;76984;52.332;10.562;2024-03-17T01:06:44;101569.13;;;2.16;79.56
86328;BME280;76984;52.332;10.562;2024-03-17T01:07:45;101551.69;;;1.99;79.13
86328;BME280;76984;52.332;10.562;2024-03-17T01:08:47;101569.44;;;2.08;78.84
86328;BME280;76984;52.332;10.562;2024-03-17T01:09:48;101578.22;;;2.10;78.04
86328;BME280;76984;52.332;10.562;2024-03-17T01:10:49;101570.72;;;2.06;78.46
86328;BME280;76984;52.332;10.562;2024-03-17T01:11:52;101544.53;;;1.86;78.95
86328;BME280;76984;52.332;10.562;2024-03-17T01:12:52;101572.25;;;2.02;78.95
86328;BME280;76984;52.332;10.562;2024-03-17T01:13:52;101566.66;;;1.97;79.42
86328;BME280;76984;52.332;10.562;2024-03-17T01:14:53;101532.34;;;1.71;78.65
86328;BME280;76984;52.332;10.562;2024-03-17T01:15:53;101565.06;;;1.89;78.90
86328;BME280;76984;52.332;10.562;2024-03-17T01:16:54;101566.72;;;1.90;78.68
86328;BME280;76984;52.332;10.562;2024-03-17T01:17:55;101568.25;;;1.86;78.64
86328;BME280;76984;52.332;10.562;2024-03-17T01:18:55;101572.41;;;1.88;79.34
86328;BME280;76984;52.332;10.562;2024-03-17T01:19:55;101571.59;;;1.88;78.90
86328;BME280;76984;52.332;10.562;2024-03-17T01:20:56;101571.00;;;1.86;78.84
86328;BME280;76984;52.332;10.562;2024-03-17T01:21:56;101573.09;;;1.84;79.96
86328;BME280;76984;52.332;10.562;2024-03-17T01:22:56;101532.28;;;1.59;79.55
86328;BME280;76984;52.332;10.562;2024-03-17T01:23:57;101568.09;;;1.81;80.58
86328;BME280;76984;52.332;10.562;2024-03-17T01:24:57;101524.38;;;1.51;79.79
86328;BME280;76984;52.332;10.562;2024-03-17T01:25:58;101571.88;;;1.80;80.03
86328;BME280;76984;52.332;10.562;2024-03-17T01:26:58;101540.88;;;1.56;79.93
86328;BME280;76984;52.332;10.562;2024-03-17T01:27:59;101539.56;;;1.47;79.78
86328;BME280;76984;52.332;10.562;2024-03-17T01:28:59;101553.69;;;1.55;79.61
86328;BME280;76984;52.332;10.562;2024-03-17T01:29:59;101522.84;;;1.36;79.81
86328;BME280;76984;52.332;10.562;2024-03-17T01:31:00;101567.03;;;1.63;80.13
86328;BME280;76984;52.332;10.562;2024-03-17T01:32:00;101572.72;;;1.62;80.21
86328;BME280;76984;52.332;10.562;2024-03-17T01:33:00;101517.50;;;1.30;80.01
86328;BME280;76984;52.332;10.562;2024-03-17T01:34:01;101567.13;;;1.57;80.61
86328;BME280;76984;52.332;10.562;2024-03-17T01:35:01;101522.13;;;1.29;79.62
86328;BME280;76984;52.332;10.562;2024-03-17T01:36:01;101559.25;;;1.49;80.34
86328;BME280;76984;52.332;10.562;2024-03-17T01:37:02;101540.13;;;1.30;80.30
86328;BME280;76984;52.332;10.562;2024-03-17T01:38:02;101572.66;;;1.50;79.91
86328;BME280;76984;52.332;10.562;2024-03-17T01:39:02;101524.75;;;1.18;80.00
86328;BME280;76984;52.332;10.562;2024-03-17T01:40:03;101563.03;;;1.48;80.42
86328;BME280;76984;52.332;10.562;2024-03-17T01:41:08;101546.47;;;1.24;80.97
86328;BME280;76984;52.332;10.562;2024-03-17T01:42:08;101549.44;;;1.23;80.99
86328;BME280;76984;52.332;10.562;2024-03-17T01:43:10;101577.56;;;1.42;81.09
86328;BME280;76984;52.332;10.562;2024-03-17T01:44:25;101570.06;;;1.37;81.57
86328;BME280;76984;52.332;10.562;2024-03-17T01:45:30;101544.44;;;1.20;81.86
86328;BME280;76984;52.332;10.562;2024-03-17T01:46:34;101556.56;;;1.24;82.17
86328;BME280;76984;52.332;10.562;2024-03-17T01:47:34;101557.38;;;1.24;81.39
86328;BME280;76984;52.332;10.562;2024-03-17T01:48:35;101529.66;;;1.09;81.50
86328;BME280;76984;52.332;10.562;2024-03-17T01:49:36;101563.44;;;1.26;81.53
86328;BME280;76984;52.332;10.562;2024-03-17T01:50:36;101570.78;;;1.26;81.90
86328;BME280;76984;52.332;10.562;2024-03-17T01:51:37;101520.13;;;1.00;80.94
86328;BME280;76984;52.332;10.562;2024-03-17T01:52:38;101552.06;;;1.11;80.81
86328;BME280;76984;52.332;10.562;2024-03-17T01:53:39;101547.47;;;1.12;80.85
86328;BME280;76984;52.332;10.562;2024-03-17T01:54:41;101561.47;;;1.15;80.83
86328;BME280;76984;52.332;10.562;2024-03-17T01:55:43;101535.78;;;1.04;81.16
86328;BME280;76984;52.332;10.562;2024-03-17T01:56:44;101564.41;;;1.14;80.32
86328;BME280;76984;52.332;10.562;2024-03-17T01:57:45;101525.25;;;0.90;80.82
86328;BME280;76984;52.332;10.562;2024-03-17T01:58:45;101529.56;;;0.97;81.25
86328;BME280;76984;52.332;10.562;2024-03-17T01:59:46;101564.41;;;1.14;81.29
86328;BME280;76984;52.332;10.562;2024-03-17T02:00:46;101568.44;;;1.11;80.75
86328;BME280;76984;52.332;10.562;2024-03-17T02:01:46;101551.97;;;0.99;81.06
86328;BME280;76984;52.332;10.562;2024-03-17T02:02:47;101543.03;;;0.92;80.92
86328;BME280;76984;52.332;10.562;2024-03-17T02:03:47;101536.78;;;0.85;80.25
86328;BME280;76984;52.332;10.562;2024-03-17T02:04:47;101550.97;;;0.94;80.76
86328;BME280;76984;52.332;10.562;2024-03-17T02:05:48;101545.16;;;0.90;81.26
86328;BME280;76984;52.332;10.562;2024-03-17T02:06:48;101555.78;;;0.98;80.76
86328;BME280;76984;52.332;10.562;2024-03-17T02:07:49;101540.56;;;0.84;81.23
86328;BME280;76984;52.332;10.562;2024-03-17T02:08:51;101541.03;;;0.81;81.15
86328;BME280;76984;52.332;10.562;2024-03-17T02:09:52;101550.81;;;0.89;81.48
86328;BME280;76984;52.332;10.562;2024-03-17T02:10:53;101522.25;;;0.73;81.93
86328;BME280;76984;52.332;10.562;2024-03-17T02:11:54;101562.47;;;0.96;81.74
86328;BME280;76984;52.332;10.562;2024-03-17T02:12:54;101539.97;;;0.82;81.76
86328;BME280;76984;52.332;10.562;2024-03-17T02:13:55;101542.28;;;0.78;82.17
86328;BME280;76984;52.332;10.562;2024-03-17T02:14:57;101524.34;;;0.71;81.66
86328;BME280;76984;52.332;10.562;2024-03-17T02:15:58;101554.81;;;0.86;81.83
86328;BME280;76984;52.332;10.562;2024-03-17T02:16:58;101536.69;;;0.73;81.57
86328;BME280;76984;52.332;10.562;2024-03-17T02:17:59;101566.94;;;0.90;80.89
86328;BME280;76984;52.332;10.562;2024-03-17T02:18:59;101542.13;;;0.73;80.04
86328;BME280;76984;52.332;10.562;2024-03-17T02:20:00;101554.25;;;0.77;80.92
86328;BME280;76984;52.332;10.562;2024-03-17T02:21:00;101552.19;;;0.73;80.29
86328;BME280;76984;52.332;10.562;2024-03-17T02:22:01;101531.97;;;0.62;80.83
86328;BME280;76984;52.332;10.562;2024-03-17T02:23:01;101560.72;;;0.83;81.52
86328;BME280;76984;52.332;10.562;2024-03-17T02:24:01;101531.13;;;0.62;80.74
86328;BME280;76984;52.332;10.562;2024-03-17T02:25:02;101550.69;;;0.77;81.03
86328;BME280;76984;52.332;10.562;2024-03-17T02:26:02;101542.97;;;0.74;80.40
86328;BME280;76984;52.332;10.562;2024-03-17T02:27:03;101560.75;;;0.76;81.09
86328;BME280;76984;52.332;10.562;2024-03-17T02:28:04;101528.63;;;0.60;81.13
86328;BME280;76984;52.332;10.562;2024-03-17T02:29:07;101537.19;;;0.64;81.09
86328;BME280;76984;52.332;10.562;2024-03-17T02:30:07;101540.28;;;0.67;81.02
86328;BME280;76984;52.332;10.562;2024-03-17T02:31:10;101560.16;;;0.74;81.06
86328;BME280;76984;52.332;10.562;2024-03-17T02:32:10;101565.16;;;0.77;80.27
86328;BME280;76984;52.332;10.562;2024-03-17T02:33:11;101567.47;;;0.74;81.52
86328;BME280;76984;52.332;10.562;2024-03-17T02:34:11;101537.91;;;0.53;81.03
86328;BME280;76984;52.332;10.562;2024-03-17T02:35:12;101549.97;;;0.63;80.90
86328;BME280;76984;52.332;10.562;2024-03-17T02:36:12;101564.81;;;0.67;81.58
86328;BME280;76984;52.332;10.562;2024-03-17T02:37:12;101567.75;;;0.66;81.63
86328;BME280;76984;52.332;10.562;2024-03-17T02:38:15;101565.88;;;0.66;81.94
86328;BME280;76984;52.332;10.562;2024-03-17T02:39:36;101564.03;;;0.60;82.86
86328;BME280;76984;52.332;10.562;2024-03-17T02:40:36;101436.63;;;-0.19;82.57
86328;BME280;76984;52.332;10.562;2024-03-17T02:41:36;101524.22;;;0.34;81.88
86328;BME280;76984;52.332;10.562;2024-03-17T02:42:37;101558.03;;;0.52;82.13
86328;BME280;76984;52.332;10.562;2024-03-17T02:43:38;101539.25;;;0.37;81.68
86328;BME280;76984;52.332;10.562;2024-03-17T02:44:38;101573.09;;;0.54;81.72
86328;BME280;76984;52.332;10.562;2024-03-17T02:45:40;101561.81;;;0.51;81.60
86328;BME280;76984;52.332;10.562;2024-03-17T02:46:40;101580.03;;;0.50;81.93
86328;BME280;76984;52.332;10.562;2024-03-17T02:47:40;101530.78;;;0.20;82.27
86328;BME280;76984;52.332;10.562;2024-03-17T02:48:42;101574.59;;;0.50;81.84
86328;BME280;76984;52.332;10.562;2024-03-17T02:49:47;101578.34;;;0.49;82.61
86328;BME280;76984;52.332;10.562;2024-03-17T02:50:50;101524.28;;;0.21;82.41
86328;BME280;76984;52.332;10.562;2024-03-17T02:51:50;101571.44;;;0.46;81.70
86328;BME280;76984;52.332;10.562;2024-03-17T02:52:51;101476.97;;;-0.10;81.65
86328;BME280;76984;52.332;10.562;2024-03-17T02:53:51;101546.00;;;0.34;82.03
86328;BME280;76984;52.332;10.562;2024-03-17T02:54:51;101548.53;;;0.29;81.70
86328;BME280;76984;52.332;10.562;2024-03-17T02:55:53;101515.97;;;0.16;82.00
86328;BME280;76984;52.332;10.562;2024-03-17T02:56:53;101572.50;;;0.45;81.85
86328;BME280;76984;52.332;10.562;2024-03-17T02:57:53;101566.47;;;0.43;82.03
86328;BME280;76984;52.332;10.562;2024-03-17T02:58:54;101566.69;;;0.42;82.02
86328;BME280;76984;52.332;10.562;2024-03-17T02:59:54;101529.72;;;0.21;82.15
86328;BME280;76984;52.332;10.562;2024-03-17T03:00:55;101564.56;;;0.44;82.97
86328;BME280;76984;52.332;10.562;2024-03-17T03:01:55;101519.31;;;0.11;81.72
86328;BME280;76984;52.332;10.562;2024-03-17T03:02:55;101540.56;;;0.28;81.93
86328;BME280;76984;52.332;10.562;2024-03-17T03:03:55;101536.63;;;0.24;82.22
86328;BME280;76984;52.332;10.562;2024-03-17T03:04:56;101566.25;;;0.38;81.25
86328;BME280;76984;52.332;10.562;2024-03-17T03:05:56;101547.69;;;0.29;81.19
86328;BME280;76984;52.332;10.562;2024-03-17T03:07:04;101572.75;;;0.37;81.73
86328;BME280;76984;52.332;10.562;2024-03-17T03:08:04;101557.94;;;0.33;81.48
86328;BME280;76984;52.332;10.562;2024-03-17T03:09:05;101544.81;;;0.24;81.39
86328;BME280;76984;52.332;10.562;2024-03-17T03:10:12;101536.91;;;0.15;81.76
86328;BME280;76984;52.332;10.562;2024-03-17T03:11:12;101551.72;;;0.19;81.36
86328;BME280;76984;52.332;10.562;2024-03-17T03:12:13;101552.56;;;0.20;82.18
86328;BME280;76984;52.332;10.562;2024-03-17T03:13:13;101556.31;;;0.26;81.93
86328;BME280;76984;52.332;10.562;2024-03-17T03:14:13;101554.88;;;0.23;82.24
86328;BME280;76984;52.332;10.562;2024-03-17T03:15:13;101531.25;;;0.10;82.56
86328;BME280;76984;52.332;10.562;2024-03-17T03:16:14;101562.56;;;0.26;82.71
86328;BME280;76984;52.332;10.562;2024-03-17T03:17:20;101574.06;;;0.28;81.91
86328;BME280;76984;52.332;10.562;2024-03-17T03:18:20;101513.59;;;-0.05;82.80
86328;BME280;76984;52.332;10.562;2024-03-17T03:19:21;101567.81;;;0.28;82.99
86328;BME280;76984;52.332;10.562;2024-03-17T03:20:21;101564.09;;;0.22;83.23
86328;BME280;76984;52.332;10.562;2024-03-17T03:21:22;101567.81;;;0.28;83.60
86328;BME280;76984;52.332;10.562;2024-03-17T03:22:22;101571.13;;;0.30;83.55
86328;BME280;76984;52.332;10.562;2024-03-17T03:23:22;101535.66;;;0.11;83.61
86328;BME280;76984;52.332;10.562;2024-03-17T03:24:23;101549.00;;;0.19;82.59
86328;BME280;76984;52.332;10.562;2024-03-17T03:25:23;101526.09;;;0.02;82.27
86328;BME280;76984;52.332;10.562;2024-03-17T03:26:23;101524.22;;;0.03;82.35
86328;BME280;76984;52.332;10.562;2024-03-17T03:27:24;101540.09;;;0.06;81.78
86328;BME280;76984;52.332;10.562;2024-03-17T03:28:25;101562.56;;;0.26;82.16
86328;BME280;76984;52.332;10.562;2024-03-17T03:29:26;101571.56;;;0.27;81.72
86328;BME280;76984;52.332;10.562;2024-03-17T03:30:27;101556.53;;;0.24;82.90
86328;BME280;76984;52.332;10.562;2024-03-17T03:31:27;101550.28;;;0.17;82.73
86328;BME280;76984;52.332;10.562;2024-03-17T03:32:27;101558.00;;;0.20;83.13
86328;BME280;76984;52.332;10.562;2024-03-17T03:33:28;101564.69;;;0.24;83.51
86328;BME280;76984;52.332;10.562;2024-03-17T03:34:28;101548.03;;;0.07;82.70
86328;BME280;76984;52.332;10.562;2024-03-17T03:35:28;101539.03;;;0.07;82.55
86328;BME280;76984;52.332;10.562;2024-03-17T03:36:29;101566.81;;;0.22;82.86
86328;BME280;76984;52.332;10.562;2024-03-17T03:37:29;101528.19;;;0.00;83.75
86328;BME280;76984;52.332;10.562;2024-03-17T03:38:30;101539.47;;;0.04;83.96
86328;BME280;76984;52.332;10.562;2024-03-17T03:39:30;101553.00;;;0.17;83.67
86328;BME280;76984;52.332;10.562;2024-03-17T03:40:31;101515.03;;;-0.03;84.15
86328;BME280;76984;52.332;10.562;2024-03-17T03:41:32;101567.41;;;0.24;85.17
86328;BME280;76984;52.332;10.562;2024-03-17T03:42:33;101561.97;;;0.24;85.21
86328;BME280;76984;52.332;10.562;2024-03-17T03:43:33;101528.19;;;0.00;84.99
86328;BME280;76984;52.332;10.562;2024-03-17T03:44:33;101565.75;;;0.23;84.53
86328;BME280;76984;52.332;10.562;2024-03-17T03:45:34;101561.38;;;0.22;85.40
86328;BME280;76984;52.332;10.562;2024-03-17T03:46:35;101540.91;;;0.13;85.84
86328;BME280;76984;52.332;10.562;2024-03-17T03:47:35;101566.59;;;0.24;85.40
86328;BME280;76984;52.332;10.562;2024-03-17T03:48:35;101521.75;;;-0.05;84.86
86328;BME280;76984;52.332;10.562;2024-03-17T03:49:36;101566.81;;;0.22;84.29
86328;BME280;76984;52.332;10.562;2024-03-17T03:50:38;101568.47;;;0.23;84.55
86328;BME280;76984;52.332;10.562;2024-03-17T03:51:38;101566.81;;;0.22;84.89
86328;BME280;76984;52.332;10.562;2024-03-17T03:52:39;101523.56;;;0.01;84.85
86328;BME280;76984;52.332;10.562;2024-03-17T03:53:41;101543.41;;;0.08;84.42
86328;BME280;76984;52.332;10.562;2024-03-17T03:54:42;101566.59;;;0.24;84.46
86328;BME280;76984;52.332;10.562;2024-03-17T03:55:42;101570.34;;;0.23;84.20
86328;BME280;76984;52.332;10.562;2024-03-17T03:56:43;101566.81;;;0.22;84.70
86328;BME280;76984;52.332;10.562;2024-03-17T03:57:44;101573.28;;;0.21;84.64
86328;BME280;76984;52.332;10.562;2024-03-17T03:58:49;101563.44;;;0.20;84.78
86328;BME280;76984;52.332;10.562;2024-03-17T03:59:50;101521.13;;;-0.07;84.95
86328;BME280;76984;52.332;10.562;2024-03-17T04:00:50;101539.06;;;0.00;84.33
86328;BME280;76984;52.332;10.562;2024-03-17T04:01:50;101565.56;;;0.18;84.32
86328;BME280;76984;52.332;10.562;2024-03-17T04:02:54;101549.31;;;0.05;84.85
86328;BME280;76984;52.332;10.562;2024-03-17T04:03:54;101529.69;;;-0.04;84.78
86328;BME280;76984;52.332;10.562;2024-03-17T04:04:54;101536.41;;;-0.06;84.86
86328;BME280;76984;52.332;10.562;2024-03-17T04:06:05;101562.66;;;0.13;84.40
86328;BME280;76984;52.332;10.562;2024-03-17T04:07:05;101567.28;;;0.12;84.54
86328;BME280;76984;52.332;10.562;2024-03-17T04:08:08;101536.59;;;-0.08;84.21
86328;BME280;76984;52.332;10.562;2024-03-17T04:09:08;101559.75;;;0.08;83.44
86328;BME280;76984;52.332;10.562;2024-03-17T04:10:09;101539.13;;;-0.06;83.49
86328;BME280;76984;52.332;10.562;2024-03-17T04:11:10;101564.34;;;0.07;84.02
86328;BME280;76984;52.332;10.562;2024-03-17T04:12:11;101534.91;;;-0.09;83.81
86328;BME280;76984;52.332;10.562;2024-03-17T04:13:12;101580.47;;;0.09;84.00
86328;BME280;76984;52.332;10.562;2024-03-17T04:14:14;101523.28;;;-0.23;84.45
86328;BME280;76984;52.332;10.562;2024-03-17T04:15:14;101552.50;;;-0.05;83.74
86328;BME280;76984;52.332;10.562;2024-03-17T04:16:14;101572.13;;;0.04;84.80
86328;BME280;76984;52.332;10.562;2024-03-17T04:17:15;101532.06;;;-0.21;84.14
86328;BME280;76984;52.332;10.562;2024-03-17T04:18:16;101550.03;;;-0.13;84.27
86328;BME280;76984;52.332;10.562;2024-03-17T04:19:17;101551.28;;;-0.16;84.94
86328;BME280;76984;52.332;10.562;2024-03-17T04:20:18;101525.81;;;-0.28;84.26
86328;BME280;76984;52.332;10.562;2024-03-17T04:21:18;101562.78;;;-0.07;84.24
86328;BME280;76984;52.332;10.562;2024-03-17T04:22:19;101571.94;;;-0.08;84.63
86328;BME280;76984;52.332;10.562;2024-03-17T04:23:20;101578.25;;;-0.07;85.22
86328;BME280;76984;52.332;10.562;2024-03-17T04:24:21;101534.84;;;-0.34;85.16
86328;BME280;76984;52.332;10.562;2024-03-17T04:25:22;101581.38;;;-0.11;84.94
86328;BME280;76984;52.332;10.562;2024-03-17T04:26:23;101565.50;;;-0.14;85.15
86328;BME280;76984;52.332;10.562;2024-03-17T04:27:23;101540.88;;;-0.25;84.97
86328;BME280;76984;52.332;10.562;2024-03-17T04:28:23;101581.38;;;-0.04;85.20
86328;BME280;76984;52.332;10.562;2024-03-17T04:29:24;101564.69;;;-0.14;84.82
86328;BME280;76984;52.332;10.562;2024-03-17T04:30:24;101583.88;;;-0.02;85.10
86328;BME280;76984;52.332;10.562;2024-03-17T04:31:25;101579.25;;;-0.02;85.22
86328;BME280;76984;52.332;10.562;2024-03-17T04:32:26;101561.13;;;-0.15;85.34
86328;BME280;76984;52.332;10.562;2024-03-17T04:33:32;101580.31;;;-0.03;84.81
86328;BME280;76984;52.332;10.562;2024-03-17T04:34:32;101561.34;;;-0.16;84.69
86328;BME280;76984;52.332;10.562;2024-03-17T04:35:36;101580.28;;;0.04;85.02
86328;BME280;76984;52.332;10.562;2024-03-17T04:36:37;101579.25;;;0.05;85.22
86328;BME280;76984;52.332;10.562;2024-03-17T04:37:37;101570.84;;;0.06;84.43
86328;BME280;76984;52.332;10.562;2024-03-17T04:38:39;101550.00;;;-0.06;84.96
86328;BME280;76984;52.332;10.562;2024-03-17T04:39:43;101571.47;;;0.08;85.06
86328;BME280;76984;52.332;10.562;2024-03-17T04:40:44;101576.47;;;0.11;85.02
86328;BME280;76984;52.332;10.562;2024-03-17T04:41:46;101541.41;;;-0.03;85.48
86328;BME280;76984;52.332;10.562;2024-03-17T04:42:48;101537.88;;;-0.11;85.15
86328;BME280;76984;52.332;10.562;2024-03-17T04:43:48;101542.44;;;-0.04;84.61
86328;BME280;76984;52.332;10.562;2024-03-17T04:44:48;101547.88;;;-0.04;85.30
86328;BME280;76984;52.332;10.562;2024-03-17T04:45:49;101574.75;;;0.24;85.07
86328;BME280;76984;52.332;10.562;2024-03-17T04:46:49;101590.84;;;0.25;84.64
86328;BME280;76984;52.332;10.562;2024-03-17T04:47:50;101584.97;;;0.28;84.97
86328;BME280;76984;52.332;10.562;2024-03-17T04:48:50;101586.41;;;0.31;84.74
86328;BME280;76984;52.332;10.562;2024-03-17T04:49:50;101587.88;;;0.33;84.67
86328;BME280;76984;52.332;10.562;2024-03-17T04:50:50;101584.31;;;0.33;85.07
86328;BME280;76984;52.332;10.562;2024-03-17T04:51:51;101591.22;;;0.35;85.59
86328;BME280;76984;52.332;10.562;2024-03-17T04:52:51;101514.41;;;-0.05;85.57
86328;BME280;76984;52.332;10.562;2024-03-17T04:53:51;101556.53;;;0.24;85.89
86328;BME280;76984;52.332;10.562;2024-03-17T04:54:51;101581.13;;;0.42;85.75
86328;BME280;76984;52.332;10.562;2024-03-17T04:56:05;101546.69;;;0.23;86.07
86328;BME280;76984;52.332;10.562;2024-03-17T04:57:06;101540.84;;;0.19;85.94
86328;BME280;76984;52.332;10.562;2024-03-17T04:58:06;101550.81;;;0.32;85.65
86328;BME280;76984;52.332;10.562;2024-03-17T04:59:06;101562.09;;;0.36;85.54
86328;BME280;76984;52.332;10.562;2024-03-17T05:00:07;101578.56;;;0.47;85.72
86328;BME280;76984;52.332;10.562;2024-03-17T05:01:08;101584.63;;;0.49;85.15
86328;BME280;76984;52.332;10.562;2024-03-17T05:02:08;101582.53;;;0.52;85.23
86328;BME280;76984;52.332;10.562;2024-03-17T05:03:08;101553.94;;;0.36;85.31
86328;BME280;76984;52.332;10.562;2024-03-17T05:04:09;101552.88;;;0.37;84.96
86328;BME280;76984;52.332;10.562;2024-03-17T05:05:09;101545.56;;;0.31;84.76
86328;BME280;76984;52.332;10.562;2024-03-17T05:06:10;101543.50;;;0.33;84.30
86328;BME280;76984;52.332;10.562;2024-03-17T05:07:10;101555.94;;;0.47;85.08
86328;BME280;76984;52.332;10.562;2024-03-17T05:08:11;101578.03;;;0.64;84.45
86328;BME280;76984;52.332;10.562;2024-03-17T05:09:14;101568.66;;;0.60;84.68
86328;BME280;76984;52.332;10.562;2024-03-17T05:10:14;101576.53;;;0.68;85.41
86328;BME280;76984;52.332;10.562;2024-03-17T05:11:15;101567.19;;;0.57;85.27
86328;BME280;76984;52.332;10.562;2024-03-17T05:12:16;101594.94;;;0.72;85.44
86328;BME280;76984;52.332;10.562;2024-03-17T05:13:16;101556.13;;;0.52;85.05
86328;BME280;76984;52.332;10.562;2024-03-17T05:14:17;101587.44;;;0.68;85.65
86328;BME280;76984;52.332;10.562;2024-03-17T05:15:19;101582.63;;;0.70;85.62
86328;BME280;76984;52.332;10.562;2024-03-17T05:16:19;101564.25;;;0.59;85.78
86328;BME280;76984;52.332;10.562;2024-03-17T05:17:22;101583.59;;;0.75;85.63
86328;BME280;76984;52.332;10.562;2024-03-17T05:18:23;101588.81;;;0.77;86.20